sensor_id;sensor_type;location;lat;lon;timestamp;P1;durP1;ratioP1;P2;durP2;ratioP2
11797;SDS011;5956;51.428;6.682;2023-02-01T00:01:42;13.70;;;5.90;;
11797;SDS011;5956;51.428;6.682;2023-02-01T00:04:09;11.53;;;5.33;;
11797;SDS011;5956;51.428;6.682;2023-02-01T00:06:35;18.13;;;5.07;;
11797;SDS011;5956;51.428;6.682;2023-02-01T00:09:02;13.13;;;4.93;;
11797;SDS011;5956;51.428;6.682;2023-02-01T00:11:30;19.63;;;5.47;;
11797;SDS011;5956;51.428;6.682;2023-02-01T00:13:57;13.30;;;5.20;;
11797;SDS011;5956;51.428;6.682;2023-02-01T00:16:24;18.70;;;5.60;;
11797;SDS011;5956;51.428;6.682;2023-02-01T00:18:52;16.20;;;5.33;;
11797;SDS011;5956;51.428;6.682;2023-02-01T00:21:22;11.97;;;4.57;;
11797;SDS011;5956;51.428;6.682;2023-02-01T00:23:48;13.63;;;4.90;;
11797;SDS011;5956;51.428;6.682;2023-02-01T00:26:15;14.20;;;5.60;;
11797;SDS011;5956;51.428;6.682;2023-02-01T00:28:44;14.50;;;4.50;;
11797;SDS011;5956;51.428;6.682;2023-02-01T00:31:11;15.77;;;5.53;;
11797;SDS011;5956;51.428;6.682;2023-02-01T00:33:37;10.50;;;4.90;;
11797;SDS011;5956;51.428;6.682;2023-02-01T00:36:05;14.50;;;4.77;;
11797;SDS011;5956;51.428;6.682;2023-02-01T00:38:33;12.33;;;5.10;;
11797;SDS011;5956;51.428;6.682;2023-02-01T00:41:01;15.73;;;6.03;;
11797;SDS011;5956;51.428;6.682;2023-02-01T00:43:28;12.97;;;5.60;;
11797;SDS011;5956;51.428;6.682;2023-02-01T00:45:57;18.90;;;6.73;;
11797;SDS011;5956;51.428;6.682;2023-02-01T00:48:24;14.70;;;5.67;;
11797;SDS011;5956;51.428;6.682;2023-02-01T00:50:51;17.43;;;5.33;;
11797;SDS011;5956;51.428;6.682;2023-02-01T00:53:17;10.90;;;6.20;;
11797;SDS011;5956;51.428;6.682;2023-02-01T00:55:44;13.97;;;6.80;;
11797;SDS011;5956;51.428;6.682;2023-02-01T00:58:11;13.90;;;7.53;;
11797;SDS011;5956;51.428;6.682;2023-02-01T01:00:37;17.03;;;6.97;;
11797;SDS011;5956;51.428;6.682;2023-02-01T01:03:05;17.10;;;7.57;;
11797;SDS011;5956;51.428;6.682;2023-02-01T01:05:43;20.27;;;7.23;;
11797;SDS011;5956;51.428;6.682;2023-02-01T01:08:09;14.67;;;7.63;;
11797;SDS011;5956;51.428;6.682;2023-02-01T01:10:36;15.33;;;7.87;;
11797;SDS011;5956;51.428;6.682;2023-02-01T01:13:02;15.27;;;7.57;;
11797;SDS011;5956;51.428;6.682;2023-02-01T01:15:29;12.80;;;7.27;;
11797;SDS011;5956;51.428;6.682;2023-02-01T01:17:56;17.27;;;7.07;;
11797;SDS011;5956;51.428;6.682;2023-02-01T01:20:24;17.20;;;7.67;;
11797;SDS011;5956;51.428;6.682;2023-02-01T01:22:50;12.77;;;6.93;;
11797;SDS011;5956;51.428;6.682;2023-02-01T01:25:17;17.27;;;7.27;;
11797;SDS011;5956;51.428;6.682;2023-02-01T01:27:43;15.93;;;7.47;;
11797;SDS011;5956;51.428;6.682;2023-02-01T01:30:10;14.87;;;6.63;;
11797;SDS011;5956;51.428;6.682;2023-02-01T01:32:36;14.53;;;6.73;;
11797;SDS011;5956;51.428;6.682;2023-02-01T01:35:03;17.07;;;7.27;;
11797;SDS011;5956;51.428;6.682;2023-02-01T01:37:31;16.53;;;7.13;;
11797;SDS011;5956;51.428;6.682;2023-02-01T01:39:58;19.30;;;6.87;;
11797;SDS011;5956;51.428;6.682;2023-02-01T01:42:24;14.43;;;6.70;;
11797;SDS011;5956;51.428;6.682;2023-02-01T01:44:56;11.00;;;6.07;;
11797;SDS011;5956;51.428;6.682;2023-02-01T01:47:23;17.03;;;6.57;;
11797;SDS011;5956;51.428;6.682;2023-02-01T01:49:49;15.13;;;7.00;;
11797;SDS011;5956;51.428;6.682;2023-02-01T01:52:17;16.70;;;5.57;;
11797;SDS011;5956;51.428;6.682;2023-02-01T01:54:46;13.00;;;5.90;;
11797;SDS011;5956;51.428;6.682;2023-02-01T01:57:14;16.90;;;5.40;;
11797;SDS011;5956;51.428;6.682;2023-02-01T01:59:46;14.20;;;6.30;;
11797;SDS011;5956;51.428;6.682;2023-02-01T02:02:14;16.13;;;5.67;;
11797;SDS011;5956;51.428;6.682;2023-02-01T02:04:41;16.90;;;4.93;;
11797;SDS011;5956;51.428;6.682;2023-02-01T02:07:09;15.53;;;4.67;;
11797;SDS011;5956;51.428;6.682;2023-02-01T02:09:37;13.90;;;5.50;;
11797;SDS011;5956;51.428;6.682;2023-02-01T02:12:05;14.33;;;4.97;;
11797;SDS011;5956;51.428;6.682;2023-02-01T02:14:32;12.40;;;4.53;;
11797;SDS011;5956;51.428;6.682;2023-02-01T02:17:04;19.70;;;5.77;;
11797;SDS011;5956;51.428;6.682;2023-02-01T02:22:22;10.63;;;4.83;;
11797;SDS011;5956;51.428;6.682;2023-02-01T02:24:57;15.67;;;5.30;;
11797;SDS011;5956;51.428;6.682;2023-02-01T02:27:30;16.37;;;4.90;;
11797;SDS011;5956;51.428;6.682;2023-02-01T02:30:08;13.43;;;4.57;;
11797;SDS011;5956;51.428;6.682;2023-02-01T02:32:47;18.53;;;5.33;;
11797;SDS011;5956;51.428;6.682;2023-02-01T02:35:22;12.60;;;5.00;;
11797;SDS011;5956;51.428;6.682;2023-02-01T02:37:53;14.20;;;4.83;;
11797;SDS011;5956;51.428;6.682;2023-02-01T02:40:22;13.10;;;3.97;;
11797;SDS011;5956;51.428;6.682;2023-02-01T02:42:50;13.40;;;4.23;;
11797;SDS011;5956;51.428;6.682;2023-02-01T02:45:34;11.43;;;4.40;;
11797;SDS011;5956;51.428;6.682;2023-02-01T02:48:22;13.80;;;4.67;;
11797;SDS011;5956;51.428;6.682;2023-02-01T02:50:53;9.63;;;4.07;;
11797;SDS011;5956;51.428;6.682;2023-02-01T02:53:38;12.67;;;3.80;;
11797;SDS011;5956;51.428;6.682;2023-02-01T02:56:24;14.57;;;4.57;;
11797;SDS011;5956;51.428;6.682;2023-02-01T02:59:10;14.70;;;4.87;;
11797;SDS011;5956;51.428;6.682;2023-02-01T03:01:55;15.30;;;4.43;;
11797;SDS011;5956;51.428;6.682;2023-02-01T03:04:39;16.30;;;5.17;;
11797;SDS011;5956;51.428;6.682;2023-02-01T03:07:14;14.67;;;4.83;;
11797;SDS011;5956;51.428;6.682;2023-02-01T03:09:40;9.70;;;4.10;;
11797;SDS011;5956;51.428;6.682;2023-02-01T03:12:09;15.70;;;4.60;;
11797;SDS011;5956;51.428;6.682;2023-02-01T03:14:52;16.60;;;4.70;;
11797;SDS011;5956;51.428;6.682;2023-02-01T03:17:21;16.50;;;5.20;;
11797;SDS011;5956;51.428;6.682;2023-02-01T03:19:48;18.03;;;5.23;;
11797;SDS011;5956;51.428;6.682;2023-02-01T03:22:19;14.63;;;4.77;;
11797;SDS011;5956;51.428;6.682;2023-02-01T03:24:47;14.70;;;5.23;;
11797;SDS011;5956;51.428;6.682;2023-02-01T03:27:17;14.33;;;5.70;;
11797;SDS011;5956;51.428;6.682;2023-02-01T03:29:47;12.90;;;4.80;;
11797;SDS011;5956;51.428;6.682;2023-02-01T03:32:15;15.10;;;4.97;;
11797;SDS011;5956;51.428;6.682;2023-02-01T03:34:42;18.03;;;5.80;;
11797;SDS011;5956;51.428;6.682;2023-02-01T03:37:09;16.67;;;5.10;;
11797;SDS011;5956;51.428;6.682;2023-02-01T03:39:39;9.87;;;4.47;;
11797;SDS011;5956;51.428;6.682;2023-02-01T03:42:09;13.97;;;5.03;;
11797;SDS011;5956;51.428;6.682;2023-02-01T03:44:37;16.43;;;4.57;;
11797;SDS011;5956;51.428;6.682;2023-02-01T03:47:06;16.87;;;5.33;;
11797;SDS011;5956;51.428;6.682;2023-02-01T03:49:35;12.73;;;4.97;;
11797;SDS011;5956;51.428;6.682;2023-02-01T03:52:02;15.93;;;5.60;;
11797;SDS011;5956;51.428;6.682;2023-02-01T03:54:32;17.47;;;5.17;;
11797;SDS011;5956;51.428;6.682;2023-02-01T03:57:01;19.30;;;5.83;;
11797;SDS011;5956;51.428;6.682;2023-02-01T03:59:28;12.17;;;4.73;;
11797;SDS011;5956;51.428;6.682;2023-02-01T04:01:55;14.70;;;5.20;;
11797;SDS011;5956;51.428;6.682;2023-02-01T04:04:22;19.60;;;5.87;;
11797;SDS011;5956;51.428;6.682;2023-02-01T04:06:49;15.63;;;5.57;;
11797;SDS011;5956;51.428;6.682;2023-02-01T04:09:16;17.33;;;5.70;;
11797;SDS011;5956;51.428;6.682;2023-02-01T04:11:43;17.93;;;5.23;;
11797;SDS011;5956;51.428;6.682;2023-02-01T04:14:10;16.00;;;5.33;;
11797;SDS011;5956;51.428;6.682;2023-02-01T04:16:37;12.87;;;4.90;;
11797;SDS011;5956;51.428;6.682;2023-02-01T04:19:04;18.67;;;5.03;;
11797;SDS011;5956;51.428;6.682;2023-02-01T04:21:30;16.27;;;5.27;;
11797;SDS011;5956;51.428;6.682;2023-02-01T04:23:57;16.43;;;4.83;;
11797;SDS011;5956;51.428;6.682;2023-02-01T04:26:23;18.60;;;5.27;;
11797;SDS011;5956;51.428;6.682;2023-02-01T04:28:50;18.33;;;5.03;;
11797;SDS011;5956;51.428;6.682;2023-02-01T04:31:19;18.27;;;5.63;;
11797;SDS011;5956;51.428;6.682;2023-02-01T04:33:50;14.60;;;4.93;;
11797;SDS011;5956;51.428;6.682;2023-02-01T04:36:17;14.67;;;5.00;;
11797;SDS011;5956;51.428;6.682;2023-02-01T04:38:44;14.20;;;4.77;;
11797;SDS011;5956;51.428;6.682;2023-02-01T04:41:11;16.83;;;5.63;;
11797;SDS011;5956;51.428;6.682;2023-02-01T04:43:37;17.47;;;5.43;;
11797;SDS011;5956;51.428;6.682;2023-02-01T04:46:04;18.67;;;4.83;;
11797;SDS011;5956;51.428;6.682;2023-02-01T04:48:32;21.57;;;6.03;;
11797;SDS011;5956;51.428;6.682;2023-02-01T04:50:58;12.60;;;5.10;;
11797;SDS011;5956;51.428;6.682;2023-02-01T04:53:25;13.80;;;4.83;;
11797;SDS011;5956;51.428;6.682;2023-02-01T04:55:52;17.67;;;6.50;;
11797;SDS011;5956;51.428;6.682;2023-02-01T04:58:19;16.30;;;4.63;;
11797;SDS011;5956;51.428;6.682;2023-02-01T05:00:45;14.43;;;4.57;;
11797;SDS011;5956;51.428;6.682;2023-02-01T05:03:12;20.47;;;5.37;;
11797;SDS011;5956;51.428;6.682;2023-02-01T05:05:40;18.37;;;4.93;;
11797;SDS011;5956;51.428;6.682;2023-02-01T05:08:07;21.93;;;5.47;;
11797;SDS011;5956;51.428;6.682;2023-02-01T05:10:34;22.37;;;5.33;;
11797;SDS011;5956;51.428;6.682;2023-02-01T05:13:00;18.57;;;5.07;;
11797;SDS011;5956;51.428;6.682;2023-02-01T05:15:41;18.03;;;5.00;;
11797;SDS011;5956;51.428;6.682;2023-02-01T05:18:06;17.00;;;4.97;;
11797;SDS011;5956;51.428;6.682;2023-02-01T05:20:31;14.33;;;4.57;;
11797;SDS011;5956;51.428;6.682;2023-02-01T05:22:59;17.43;;;4.73;;
11797;SDS011;5956;51.428;6.682;2023-02-01T05:25:26;18.10;;;4.60;;
11797;SDS011;5956;51.428;6.682;2023-02-01T05:27:52;16.60;;;5.20;;
11797;SDS011;5956;51.428;6.682;2023-02-01T05:30:19;18.10;;;5.07;;
11797;SDS011;5956;51.428;6.682;2023-02-01T05:32:47;22.73;;;5.83;;
11797;SDS011;5956;51.428;6.682;2023-02-01T05:35:15;17.93;;;5.70;;
11797;SDS011;5956;51.428;6.682;2023-02-01T05:37:41;14.27;;;5.40;;
11797;SDS011;5956;51.428;6.682;2023-02-01T05:40:10;17.37;;;4.87;;
11797;SDS011;5956;51.428;6.682;2023-02-01T05:42:36;15.57;;;5.10;;
11797;SDS011;5956;51.428;6.682;2023-02-01T05:45:03;14.47;;;4.70;;
11797;SDS011;5956;51.428;6.682;2023-02-01T05:47:32;17.47;;;5.43;;
11797;SDS011;5956;51.428;6.682;2023-02-01T05:49:59;18.00;;;5.47;;
11797;SDS011;5956;51.428;6.682;2023-02-01T05:52:25;19.33;;;5.17;;
11797;SDS011;5956;51.428;6.682;2023-02-01T05:54:52;17.50;;;4.10;;
11797;SDS011;5956;51.428;6.682;2023-02-01T05:57:20;18.23;;;4.27;;
11797;SDS011;5956;51.428;6.682;2023-02-01T05:59:46;21.13;;;5.07;;
11797;SDS011;5956;51.428;6.682;2023-02-01T06:02:14;17.03;;;4.77;;
11797;SDS011;5956;51.428;6.682;2023-02-01T06:04:41;16.63;;;4.73;;
11797;SDS011;5956;51.428;6.682;2023-02-01T06:07:09;14.20;;;4.97;;
11797;SDS011;5956;51.428;6.682;2023-02-01T06:09:38;11.27;;;4.73;;
11797;SDS011;5956;51.428;6.682;2023-02-01T06:12:05;23.97;;;7.10;;
11797;SDS011;5956;51.428;6.682;2023-02-01T06:14:33;22.67;;;6.07;;
11797;SDS011;5956;51.428;6.682;2023-02-01T06:17:00;17.90;;;5.37;;
11797;SDS011;5956;51.428;6.682;2023-02-01T06:19:28;21.43;;;5.00;;
11797;SDS011;5956;51.428;6.682;2023-02-01T06:21:54;17.97;;;5.20;;
11797;SDS011;5956;51.428;6.682;2023-02-01T06:24:21;19.27;;;5.80;;
11797;SDS011;5956;51.428;6.682;2023-02-01T06:26:47;21.67;;;6.10;;
11797;SDS011;5956;51.428;6.682;2023-02-01T06:29:14;22.10;;;5.37;;
11797;SDS011;5956;51.428;6.682;2023-02-01T06:31:42;19.87;;;5.27;;
11797;SDS011;5956;51.428;6.682;2023-02-01T06:34:09;17.27;;;5.23;;
11797;SDS011;5956;51.428;6.682;2023-02-01T06:36:35;17.17;;;4.87;;
11797;SDS011;5956;51.428;6.682;2023-02-01T06:39:02;20.63;;;5.23;;
11797;SDS011;5956;51.428;6.682;2023-02-01T06:41:29;17.83;;;5.03;;
11797;SDS011;5956;51.428;6.682;2023-02-01T06:43:55;20.70;;;5.97;;
11797;SDS011;5956;51.428;6.682;2023-02-01T06:46:22;15.53;;;5.27;;
11797;SDS011;5956;51.428;6.682;2023-02-01T06:48:50;16.43;;;4.63;;
11797;SDS011;5956;51.428;6.682;2023-02-01T06:51:18;18.37;;;5.10;;
11797;SDS011;5956;51.428;6.682;2023-02-01T06:53:45;16.37;;;4.77;;
11797;SDS011;5956;51.428;6.682;2023-02-01T06:56:12;18.93;;;5.33;;
11797;SDS011;5956;51.428;6.682;2023-02-01T06:58:38;16.40;;;5.10;;
11797;SDS011;5956;51.428;6.682;2023-02-01T07:01:05;22.47;;;5.13;;
11797;SDS011;5956;51.428;6.682;2023-02-01T07:03:32;16.10;;;5.60;;
11797;SDS011;5956;51.428;6.682;2023-02-01T07:06:00;11.47;;;5.33;;
11797;SDS011;5956;51.428;6.682;2023-02-01T07:08:27;15.90;;;4.90;;
11797;SDS011;5956;51.428;6.682;2023-02-01T07:10:54;17.80;;;5.00;;
11797;SDS011;5956;51.428;6.682;2023-02-01T07:13:21;16.33;;;4.77;;
11797;SDS011;5956;51.428;6.682;2023-02-01T07:15:47;19.63;;;4.83;;
11797;SDS011;5956;51.428;6.682;2023-02-01T07:18:14;20.03;;;5.60;;
11797;SDS011;5956;51.428;6.682;2023-02-01T07:20:41;13.90;;;4.43;;
11797;SDS011;5956;51.428;6.682;2023-02-01T07:23:09;19.23;;;6.30;;
11797;SDS011;5956;51.428;6.682;2023-02-01T07:25:36;21.80;;;5.53;;
11797;SDS011;5956;51.428;6.682;2023-02-01T07:28:02;18.97;;;5.50;;
11797;SDS011;5956;51.428;6.682;2023-02-01T07:30:29;19.90;;;4.83;;
11797;SDS011;5956;51.428;6.682;2023-02-01T07:32:55;13.70;;;4.87;;
11797;SDS011;5956;51.428;6.682;2023-02-01T07:35:26;18.60;;;5.53;;
11797;SDS011;5956;51.428;6.682;2023-02-01T07:37:52;21.23;;;5.27;;
11797;SDS011;5956;51.428;6.682;2023-02-01T07:40:20;18.57;;;5.70;;
11797;SDS011;5956;51.428;6.682;2023-02-01T07:42:53;18.57;;;4.93;;
11797;SDS011;5956;51.428;6.682;2023-02-01T07:45:20;25.27;;;7.70;;
11797;SDS011;5956;51.428;6.682;2023-02-01T07:47:46;18.10;;;5.57;;
11797;SDS011;5956;51.428;6.682;2023-02-01T07:50:13;19.70;;;4.90;;
11797;SDS011;5956;51.428;6.682;2023-02-01T07:52:39;14.90;;;5.40;;
11797;SDS011;5956;51.428;6.682;2023-02-01T07:55:06;20.47;;;5.57;;
11797;SDS011;5956;51.428;6.682;2023-02-01T07:57:34;15.27;;;5.03;;
11797;SDS011;5956;51.428;6.682;2023-02-01T08:00:01;17.83;;;5.20;;
11797;SDS011;5956;51.428;6.682;2023-02-01T08:02:42;22.00;;;5.80;;
11797;SDS011;5956;51.428;6.682;2023-02-01T08:05:08;18.73;;;5.23;;
11797;SDS011;5956;51.428;6.682;2023-02-01T08:07:33;22.10;;;6.37;;
11797;SDS011;5956;51.428;6.682;2023-02-01T08:09:58;16.10;;;5.20;;
11797;SDS011;5956;51.428;6.682;2023-02-01T08:12:25;18.07;;;5.40;;
11797;SDS011;5956;51.428;6.682;2023-02-01T08:14:54;19.10;;;5.17;;
11797;SDS011;5956;51.428;6.682;2023-02-01T08:17:21;23.37;;;6.07;;
11797;SDS011;5956;51.428;6.682;2023-02-01T08:19:48;20.67;;;5.70;;
11797;SDS011;5956;51.428;6.682;2023-02-01T08:22:14;21.33;;;5.80;;
11797;SDS011;5956;51.428;6.682;2023-02-01T08:24:41;19.13;;;6.37;;
11797;SDS011;5956;51.428;6.682;2023-02-01T08:27:08;17.33;;;5.27;;
11797;SDS011;5956;51.428;6.682;2023-02-01T08:29:34;17.40;;;5.43;;
11797;SDS011;5956;51.428;6.682;2023-02-01T08:32:02;19.17;;;5.23;;
11797;SDS011;5956;51.428;6.682;2023-02-01T08:34:29;19.43;;;5.30;;
11797;SDS011;5956;51.428;6.682;2023-02-01T08:36:55;18.93;;;5.20;;
11797;SDS011;5956;51.428;6.682;2023-02-01T08:39:25;17.97;;;5.50;;
11797;SDS011;5956;51.428;6.682;2023-02-01T08:45:08;18.07;;;5.30;;
11797;SDS011;5956;51.428;6.682;2023-02-01T08:47:35;13.60;;;4.83;;
11797;SDS011;5956;51.428;6.682;2023-02-01T08:50:00;15.97;;;5.53;;
11797;SDS011;5956;51.428;6.682;2023-02-01T08:52:27;18.50;;;5.13;;
11797;SDS011;5956;51.428;6.682;2023-02-01T08:54:53;24.40;;;5.70;;
11797;SDS011;5956;51.428;6.682;2023-02-01T08:57:20;21.20;;;6.00;;
11797;SDS011;5956;51.428;6.682;2023-02-01T08:59:46;18.50;;;5.47;;
11797;SDS011;5956;51.428;6.682;2023-02-01T09:02:13;26.63;;;6.27;;
11797;SDS011;5956;51.428;6.682;2023-02-01T09:04:41;19.83;;;5.77;;
11797;SDS011;5956;51.428;6.682;2023-02-01T09:07:07;17.30;;;5.90;;
11797;SDS011;5956;51.428;6.682;2023-02-01T09:09:34;18.80;;;5.67;;
11797;SDS011;5956;51.428;6.682;2023-02-01T09:12:01;19.33;;;5.43;;
11797;SDS011;5956;51.428;6.682;2023-02-01T09:14:28;22.63;;;5.23;;
11797;SDS011;5956;51.428;6.682;2023-02-01T09:16:54;15.93;;;4.93;;
11797;SDS011;5956;51.428;6.682;2023-02-01T09:19:21;18.97;;;5.10;;
11797;SDS011;5956;51.428;6.682;2023-02-01T09:21:48;18.87;;;5.57;;
11797;SDS011;5956;51.428;6.682;2023-02-01T09:24:15;20.10;;;5.73;;
11797;SDS011;5956;51.428;6.682;2023-02-01T09:26:42;18.60;;;5.17;;
11797;SDS011;5956;51.428;6.682;2023-02-01T09:29:08;17.87;;;5.27;;
11797;SDS011;5956;51.428;6.682;2023-02-01T09:31:36;23.97;;;6.13;;
11797;SDS011;5956;51.428;6.682;2023-02-01T09:34:03;25.00;;;7.07;;
11797;SDS011;5956;51.428;6.682;2023-02-01T09:36:29;19.27;;;5.50;;
11797;SDS011;5956;51.428;6.682;2023-02-01T09:38:57;22.40;;;5.67;;
11797;SDS011;5956;51.428;6.682;2023-02-01T09:41:26;18.83;;;5.87;;
11797;SDS011;5956;51.428;6.682;2023-02-01T09:43:55;20.90;;;5.23;;
11797;SDS011;5956;51.428;6.682;2023-02-01T09:46:24;23.47;;;5.13;;
11797;SDS011;5956;51.428;6.682;2023-02-01T09:48:53;18.57;;;6.47;;
11797;SDS011;5956;51.428;6.682;2023-02-01T09:51:20;19.57;;;5.50;;
11797;SDS011;5956;51.428;6.682;2023-02-01T09:53:53;22.00;;;5.13;;
11797;SDS011;5956;51.428;6.682;2023-02-01T09:56:24;15.47;;;5.70;;
11797;SDS011;5956;51.428;6.682;2023-02-01T09:58:55;16.60;;;6.00;;
11797;SDS011;5956;51.428;6.682;2023-02-01T10:01:24;19.60;;;5.67;;
11797;SDS011;5956;51.428;6.682;2023-02-01T10:03:57;21.57;;;5.63;;
11797;SDS011;5956;51.428;6.682;2023-02-01T10:06:28;18.53;;;5.67;;
11797;SDS011;5956;51.428;6.682;2023-02-01T10:09:01;16.83;;;5.07;;
11797;SDS011;5956;51.428;6.682;2023-02-01T10:11:35;16.23;;;5.30;;
11797;SDS011;5956;51.428;6.682;2023-02-01T10:14:16;19.60;;;4.87;;
11797;SDS011;5956;51.428;6.682;2023-02-01T10:16:46;24.53;;;5.63;;
11797;SDS011;5956;51.428;6.682;2023-02-01T10:19:19;19.30;;;4.97;;
11797;SDS011;5956;51.428;6.682;2023-02-01T10:21:51;14.67;;;5.63;;
11797;SDS011;5956;51.428;6.682;2023-02-01T10:24:21;18.07;;;5.50;;
11797;SDS011;5956;51.428;6.682;2023-02-01T10:26:52;14.43;;;4.77;;
11797;SDS011;5956;51.428;6.682;2023-02-01T10:29:20;16.47;;;5.30;;
11797;SDS011;5956;51.428;6.682;2023-02-01T10:31:49;21.57;;;5.60;;
11797;SDS011;5956;51.428;6.682;2023-02-01T10:34:17;19.87;;;5.07;;
11797;SDS011;5956;51.428;6.682;2023-02-01T10:36:49;16.40;;;5.20;;
11797;SDS011;5956;51.428;6.682;2023-02-01T10:39:16;14.43;;;4.20;;
11797;SDS011;5956;51.428;6.682;2023-02-01T10:41:43;15.50;;;5.03;;
11797;SDS011;5956;51.428;6.682;2023-02-01T10:44:12;17.07;;;5.13;;
11797;SDS011;5956;51.428;6.682;2023-02-01T10:46:39;16.07;;;5.13;;
11797;SDS011;5956;51.428;6.682;2023-02-01T10:49:09;18.27;;;5.10;;
11797;SDS011;5956;51.428;6.682;2023-02-01T10:51:39;16.97;;;5.70;;
11797;SDS011;5956;51.428;6.682;2023-02-01T10:54:10;16.73;;;5.10;;
11797;SDS011;5956;51.428;6.682;2023-02-01T10:56:37;16.77;;;4.67;;
11797;SDS011;5956;51.428;6.682;2023-02-01T10:59:04;16.80;;;4.77;;
11797;SDS011;5956;51.428;6.682;2023-02-01T11:01:36;12.30;;;5.23;;
11797;SDS011;5956;51.428;6.682;2023-02-01T11:04:04;18.70;;;4.73;;
11797;SDS011;5956;51.428;6.682;2023-02-01T11:06:32;17.07;;;4.80;;
11797;SDS011;5956;51.428;6.682;2023-02-01T11:09:00;17.20;;;5.10;;
11797;SDS011;5956;51.428;6.682;2023-02-01T11:11:27;19.97;;;5.33;;
11797;SDS011;5956;51.428;6.682;2023-02-01T11:13:55;18.00;;;4.90;;
11797;SDS011;5956;51.428;6.682;2023-02-01T11:16:28;14.07;;;4.77;;
11797;SDS011;5956;51.428;6.682;2023-02-01T11:18:56;16.30;;;4.97;;
11797;SDS011;5956;51.428;6.682;2023-02-01T11:21:24;15.20;;;4.73;;
11797;SDS011;5956;51.428;6.682;2023-02-01T11:23:50;18.53;;;5.23;;
11797;SDS011;5956;51.428;6.682;2023-02-01T11:26:20;13.13;;;5.00;;
11797;SDS011;5956;51.428;6.682;2023-02-01T11:28:50;19.33;;;5.10;;
11797;SDS011;5956;51.428;6.682;2023-02-01T11:31:18;13.87;;;4.80;;
11797;SDS011;5956;51.428;6.682;2023-02-01T11:33:45;13.67;;;5.07;;
11797;SDS011;5956;51.428;6.682;2023-02-01T11:36:15;19.13;;;5.70;;
11797;SDS011;5956;51.428;6.682;2023-02-01T11:38:45;17.17;;;4.83;;
11797;SDS011;5956;51.428;6.682;2023-02-01T11:41:13;14.23;;;4.20;;
11797;SDS011;5956;51.428;6.682;2023-02-01T11:43:50;19.33;;;4.73;;
11797;SDS011;5956;51.428;6.682;2023-02-01T11:46:17;15.73;;;5.03;;
11797;SDS011;5956;51.428;6.682;2023-02-01T11:48:49;18.03;;;4.93;;
11797;SDS011;5956;51.428;6.682;2023-02-01T11:51:21;17.40;;;5.10;;
11797;SDS011;5956;51.428;6.682;2023-02-01T11:53:57;13.20;;;4.87;;
11797;SDS011;5956;51.428;6.682;2023-02-01T11:56:28;11.17;;;4.57;;
11797;SDS011;5956;51.428;6.682;2023-02-01T11:59:02;17.87;;;4.53;;
11797;SDS011;5956;51.428;6.682;2023-02-01T12:01:34;11.60;;;4.93;;
11797;SDS011;5956;51.428;6.682;2023-02-01T12:04:13;14.03;;;4.87;;
11797;SDS011;5956;51.428;6.682;2023-02-01T12:06:48;15.53;;;4.83;;
11797;SDS011;5956;51.428;6.682;2023-02-01T12:12:17;14.43;;;4.70;;
11797;SDS011;5956;51.428;6.682;2023-02-01T12:14:51;12.07;;;4.70;;
11797;SDS011;5956;51.428;6.682;2023-02-01T12:17:32;14.07;;;4.40;;
11797;SDS011;5956;51.428;6.682;2023-02-01T12:20:07;16.27;;;4.63;;
11797;SDS011;5956;51.428;6.682;2023-02-01T12:22:40;11.83;;;3.90;;
11797;SDS011;5956;51.428;6.682;2023-02-01T12:25:16;13.77;;;4.00;;
11797;SDS011;5956;51.428;6.682;2023-02-01T12:27:49;20.43;;;4.33;;
11797;SDS011;5956;51.428;6.682;2023-02-01T12:30:27;8.60;;;3.67;;
11797;SDS011;5956;51.428;6.682;2023-02-01T12:33:03;13.70;;;3.77;;
11797;SDS011;5956;51.428;6.682;2023-02-01T12:35:37;8.53;;;3.77;;
11797;SDS011;5956;51.428;6.682;2023-02-01T12:38:11;13.77;;;3.43;;
11797;SDS011;5956;51.428;6.682;2023-02-01T12:40:48;7.97;;;3.50;;
11797;SDS011;5956;51.428;6.682;2023-02-01T12:43:17;14.17;;;4.00;;
11797;SDS011;5956;51.428;6.682;2023-02-01T12:45:49;13.20;;;3.50;;
11797;SDS011;5956;51.428;6.682;2023-02-01T12:48:21;7.37;;;3.00;;
11797;SDS011;5956;51.428;6.682;2023-02-01T12:50:50;9.70;;;3.60;;
11797;SDS011;5956;51.428;6.682;2023-02-01T12:53:21;17.87;;;4.73;;
11797;SDS011;5956;51.428;6.682;2023-02-01T12:55:50;13.60;;;4.33;;
11797;SDS011;5956;51.428;6.682;2023-02-01T12:58:18;11.73;;;4.13;;
11797;SDS011;5956;51.428;6.682;2023-02-01T13:00:48;11.07;;;3.43;;
11797;SDS011;5956;51.428;6.682;2023-02-01T13:03:26;16.83;;;3.90;;
11797;SDS011;5956;51.428;6.682;2023-02-01T13:05:55;11.07;;;3.23;;
11797;SDS011;5956;51.428;6.682;2023-02-01T13:08:25;8.80;;;3.40;;
11797;SDS011;5956;51.428;6.682;2023-02-01T13:10:54;14.97;;;3.80;;
11797;SDS011;5956;51.428;6.682;2023-02-01T13:13:24;10.00;;;2.97;;
11797;SDS011;5956;51.428;6.682;2023-02-01T13:15:55;10.33;;;3.90;;
11797;SDS011;5956;51.428;6.682;2023-02-01T13:18:24;10.63;;;3.70;;
11797;SDS011;5956;51.428;6.682;2023-02-01T13:20:54;15.97;;;3.47;;
11797;SDS011;5956;51.428;6.682;2023-02-01T13:23:25;11.73;;;3.60;;
11797;SDS011;5956;51.428;6.682;2023-02-01T13:25:53;12.17;;;3.93;;
11797;SDS011;5956;51.428;6.682;2023-02-01T13:28:22;13.17;;;3.83;;
11797;SDS011;5956;51.428;6.682;2023-02-01T13:30:55;13.50;;;3.40;;
11797;SDS011;5956;51.428;6.682;2023-02-01T13:33:30;11.83;;;3.77;;
11797;SDS011;5956;51.428;6.682;2023-02-01T13:36:03;14.97;;;3.97;;
11797;SDS011;5956;51.428;6.682;2023-02-01T13:38:44;12.70;;;3.10;;
11797;SDS011;5956;51.428;6.682;2023-02-01T13:41:20;12.03;;;3.80;;
11797;SDS011;5956;51.428;6.682;2023-02-01T13:43:52;12.27;;;3.50;;
11797;SDS011;5956;51.428;6.682;2023-02-01T13:46:20;11.03;;;3.60;;
11797;SDS011;5956;51.428;6.682;2023-02-01T13:48:48;10.93;;;3.40;;
11797;SDS011;5956;51.428;6.682;2023-02-01T13:51:15;18.77;;;3.90;;
11797;SDS011;5956;51.428;6.682;2023-02-01T13:53:46;12.20;;;4.03;;
11797;SDS011;5956;51.428;6.682;2023-02-01T13:56:15;16.70;;;3.80;;
11797;SDS011;5956;51.428;6.682;2023-02-01T13:58:42;11.37;;;3.73;;
11797;SDS011;5956;51.428;6.682;2023-02-01T14:03:51;16.17;;;3.33;;
11797;SDS011;5956;51.428;6.682;2023-02-01T14:06:34;14.53;;;3.97;;
11797;SDS011;5956;51.428;6.682;2023-02-01T14:09:11;12.07;;;4.07;;
11797;SDS011;5956;51.428;6.682;2023-02-01T14:11:40;11.67;;;4.50;;
11797;SDS011;5956;51.428;6.682;2023-02-01T14:24:16;12.70;;;4.03;;
11797;SDS011;5956;51.428;6.682;2023-02-01T14:26:46;11.27;;;3.77;;
11797;SDS011;5956;51.428;6.682;2023-02-01T14:29:19;13.67;;;3.77;;
11797;SDS011;5956;51.428;6.682;2023-02-01T14:31:51;13.40;;;4.27;;
11797;SDS011;5956;51.428;6.682;2023-02-01T14:34:19;11.80;;;3.80;;
11797;SDS011;5956;51.428;6.682;2023-02-01T14:36:49;12.57;;;3.43;;
11797;SDS011;5956;51.428;6.682;2023-02-01T14:39:22;14.37;;;3.63;;
11797;SDS011;5956;51.428;6.682;2023-02-01T14:41:52;13.13;;;4.30;;
11797;SDS011;5956;51.428;6.682;2023-02-01T14:44:24;12.23;;;3.90;;
11797;SDS011;5956;51.428;6.682;2023-02-01T14:47:02;13.87;;;3.80;;
11797;SDS011;5956;51.428;6.682;2023-02-01T14:49:29;10.17;;;4.13;;
11797;SDS011;5956;51.428;6.682;2023-02-01T14:51:57;12.73;;;3.97;;
11797;SDS011;5956;51.428;6.682;2023-02-01T14:54:27;17.07;;;4.40;;
11797;SDS011;5956;51.428;6.682;2023-02-01T14:56:54;10.33;;;3.47;;
11797;SDS011;5956;51.428;6.682;2023-02-01T14:59:21;12.63;;;5.30;;
11797;SDS011;5956;51.428;6.682;2023-02-01T15:01:50;16.57;;;4.10;;
11797;SDS011;5956;51.428;6.682;2023-02-01T15:04:18;12.47;;;3.47;;
11797;SDS011;5956;51.428;6.682;2023-02-01T15:06:47;10.70;;;3.50;;
11797;SDS011;5956;51.428;6.682;2023-02-01T15:09:15;18.10;;;4.30;;
11797;SDS011;5956;51.428;6.682;2023-02-01T15:14:26;12.00;;;3.43;;
11797;SDS011;5956;51.428;6.682;2023-02-01T15:16:53;11.10;;;3.90;;
11797;SDS011;5956;51.428;6.682;2023-02-01T15:19:20;14.97;;;4.77;;
11797;SDS011;5956;51.428;6.682;2023-02-01T15:21:48;15.53;;;3.70;;
11797;SDS011;5956;51.428;6.682;2023-02-01T15:24:19;18.60;;;4.87;;